Time;durP1;ratioP1;P1;durP2;ratioP2;P2;SDS_P1;SDS_P2;PMS_P1;PMS_P2;Temp;Humidity;BMP_temperature;BMP_pressure;BME280_temperature;BME280_humidity;BME280_pressure;Samples;Min_cycle;Max_cycle;Signal;HPM_P1;HPM_P2
2023/05/09 00:01:21;;;;;;;35.03;22.20;;;13.70;99.90;;;;;;5033179;28;20303;-73
2023/05/09 00:03:47;;;;;;;39.23;23.23;;;13.70;99.90;;;;;;5022625;28;20292;-73
2023/05/09 00:06:14;;;;;;;36.23;23.10;;;13.60;99.90;;;;;;5025482;28;20067;-73
2023/05/09 00:08:40;;;;;;;34.00;22.07;;;13.60;99.90;;;;;;5048255;28;20279;-73
2023/05/09 00:11:06;;;;;;;35.47;22.20;;;13.60;99.90;;;;;;5046807;28;20871;-73
2023/05/09 00:13:33;;;;;;;36.20;22.30;;;13.60;99.90;;;;;;5042962;28;20370;-73
2023/05/09 00:15:59;;;;;;;37.90;21.77;;;13.50;99.90;;;;;;5049271;28;20044;-73
2023/05/09 00:18:27;;;;;;;35.47;22.97;;;13.50;99.90;;;;;;5033167;28;20287;-73
2023/05/09 00:20:53;;;;;;;36.63;22.53;;;13.50;99.90;;;;;;5033107;28;20364;-73
2023/05/09 00:23:18;;;;;;;36.63;21.63;;;13.50;99.90;;;;;;5025235;28;20938;-73
2023/05/09 00:25:44;;;;;;;38.57;23.20;;;13.50;99.90;;;;;;5042397;28;20451;-73
2023/05/09 00:28:10;;;;;;;39.07;22.83;;;13.40;99.90;;;;;;5037885;28;20422;-73
2023/05/09 00:30:36;;;;;;;43.90;24.30;;;13.40;99.90;;;;;;5029211;28;20040;-73
2023/05/09 00:33:01;;;;;;;40.83;24.17;;;13.40;99.90;;;;;;5044374;28;20341;-73
2023/05/09 00:35:27;;;;;;;40.13;24.37;;;13.40;99.90;;;;;;5045738;28;20041;-73
2023/05/09 00:37:53;;;;;;;39.93;24.07;;;13.40;99.90;;;;;;5044292;28;20120;-73
2023/05/09 00:40:19;;;;;;;47.90;23.90;;;13.40;99.90;;;;;;5024990;28;20212;-73
2023/05/09 00:42:45;;;;;;;38.93;22.33;;;13.40;99.90;;;;;;5042675;28;20053;-73
2023/05/09 00:45:11;;;;;;;40.43;24.40;;;13.40;99.90;;;;;;5027050;28;20284;-73
2023/05/09 00:47:37;;;;;;;42.03;24.23;;;13.30;99.90;;;;;;5028108;28;20495;-73
2023/05/09 00:50:03;;;;;;;45.90;26.47;;;13.30;99.90;;;;;;5045551;28;20057;-73
2023/05/09 00:52:29;;;;;;;44.33;24.80;;;13.30;99.90;;;;;;5026100;28;20291;-73
2023/05/09 00:54:55;;;;;;;43.50;24.13;;;13.30;99.90;;;;;;5017315;28;20296;-73
2023/05/09 00:57:22;;;;;;;45.93;25.80;;;13.30;99.90;;;;;;5031360;28;20489;-73
2023/05/09 00:59:48;;;;;;;45.37;25.13;;;13.40;99.90;;;;;;5045574;28;20727;-73
2023/05/09 01:02:18;;;;;;;42.50;24.10;;;13.40;99.90;;;;;;5046277;28;20307;-73
2023/05/09 01:04:45;;;;;;;40.27;23.97;;;13.40;99.90;;;;;;5041403;28;20816;-73
2023/05/09 01:07:16;;;;;;;41.23;23.97;;;13.40;99.90;;;;;;5034501;28;20799;-73
2023/05/09 01:10:07;;;;;;;44.80;24.43;;;13.40;99.90;;;;;;5038614;28;20351;-73
2023/05/09 01:13:06;;;;;;;40.63;24.03;;;13.40;99.90;;;;;;5044601;28;20295;-73
2023/05/09 01:15:34;;;;;;;45.77;24.10;;;13.40;99.90;;;;;;5025396;28;20284;-73
2023/05/09 01:18:12;;;;;;;43.00;23.73;;;13.40;99.90;;;;;;5040439;28;20725;-73
2023/05/09 01:20:52;;;;;;;37.80;23.10;;;13.40;99.90;;;;;;5030817;28;20296;-73
2023/05/09 01:23:45;;;;;;;41.57;24.50;;;13.40;99.90;;;;;;5031781;28;20834;-73
2023/05/09 01:26:14;;;;;;;44.13;23.93;;;13.40;99.90;;;;;;5045999;28;20406;-73
2023/05/09 01:29:28;;;;;;;37.10;22.43;;;13.30;99.90;;;;;;5031482;28;20377;-73
2023/05/09 01:31:55;;;;;;;37.37;23.63;;;13.40;99.90;;;;;;5030025;28;20296;-73
2023/05/09 01:34:25;;;;;;;42.63;25.50;;;13.30;99.90;;;;;;5029717;28;20862;-73
2023/05/09 01:36:54;;;;;;;42.70;24.60;;;13.30;99.90;;;;;;5029683;28;20295;-73
2023/05/09 01:39:22;;;;;;;40.87;24.53;;;13.30;99.90;;;;;;5045497;28;20291;-73
2023/05/09 01:41:49;;;;;;;40.10;24.57;;;13.30;99.90;;;;;;5030708;28;20314;-73
2023/05/09 01:44:15;;;;;;;41.73;24.37;;;13.30;99.90;;;;;;5021724;28;20296;-73
2023/05/09 01:46:42;;;;;;;43.60;24.57;;;13.30;99.90;;;;;;5035946;28;20291;-73
2023/05/09 01:49:09;;;;;;;43.57;25.33;;;13.30;99.90;;;;;;5047951;28;20283;-73
2023/05/09 01:51:37;;;;;;;41.77;24.87;;;13.40;99.90;;;;;;5037154;28;20818;-73
2023/05/09 01:54:04;;;;;;;43.67;25.27;;;13.40;99.90;;;;;;5045960;28;20698;-73
2023/05/09 01:56:31;;;;;;;47.00;26.30;;;13.40;99.90;;;;;;5040644;28;20382;-73
2023/05/09 01:58:57;;;;;;;46.10;25.53;;;13.40;99.90;;;;;;5023198;28;20304;-73
2023/05/09 02:01:25;;;;;;;44.30;25.80;;;13.40;99.90;;;;;;5023462;28;20380;-73
2023/05/09 02:03:52;;;;;;;46.10;27.07;;;13.50;99.90;;;;;;5028681;28;20354;-73
2023/05/09 02:06:20;;;;;;;43.33;24.97;;;13.50;99.90;;;;;;5021268;28;20283;-73
2023/05/09 02:08:47;;;;;;;44.87;26.33;;;13.50;99.90;;;;;;5042376;28;20288;-73
2023/05/09 02:11:12;;;;;;;42.93;25.13;;;13.50;99.90;;;;;;5045785;28;20912;-73
2023/05/09 02:13:38;;;;;;;49.47;26.20;;;13.50;99.90;;;;;;5023848;28;20294;-73
2023/05/09 02:16:06;;;;;;;45.13;26.47;;;13.50;99.90;;;;;;5027632;28;20037;-73
2023/05/09 02:18:36;;;;;;;45.23;26.40;;;13.50;99.90;;;;;;5041947;28;20287;-73
2023/05/09 02:21:02;;;;;;;48.37;26.80;;;13.60;99.90;;;;;;5023890;28;20291;-73
2023/05/09 02:23:28;;;;;;;50.53;25.97;;;13.60;99.90;;;;;;5024457;28;20284;-73
2023/05/09 02:25:54;;;;;;;44.93;25.90;;;13.60;99.90;;;;;;5023783;28;20850;-73
2023/05/09 02:28:22;;;;;;;43.60;25.53;;;13.60;99.90;;;;;;5046471;28;20395;-74
2023/05/09 02:30:49;;;;;;;50.10;27.30;;;13.60;99.90;;;;;;5046569;28;20296;-73
2023/05/09 02:33:15;;;;;;;47.07;25.37;;;13.60;99.90;;;;;;5047018;28;20306;-73
2023/05/09 02:35:44;;;;;;;48.47;26.30;;;13.60;99.90;;;;;;5041971;28;20283;-73
2023/05/09 02:38:11;;;;;;;44.73;25.73;;;13.60;99.90;;;;;;5041637;28;20302;-73
2023/05/09 02:40:38;;;;;;;48.33;25.70;;;13.60;99.90;;;;;;5042884;28;20315;-73
2023/05/09 02:43:04;;;;;;;44.20;25.00;;;13.60;99.90;;;;;;5047137;28;20791;-73
2023/05/09 02:45:30;;;;;;;47.50;25.73;;;13.60;99.90;;;;;;5019407;28;20346;-73
2023/05/09 02:47:56;;;;;;;42.73;25.47;;;13.60;99.90;;;;;;5026302;28;20279;-73
2023/05/09 02:50:22;;;;;;;47.97;25.53;;;13.50;99.90;;;;;;5050487;28;20293;-73
2023/05/09 02:52:48;;;;;;;46.53;26.30;;;13.60;99.90;;;;;;5027214;28;20516;-73
2023/05/09 02:55:14;;;;;;;43.50;25.77;;;13.60;99.90;;;;;;5025905;28;20559;-73
2023/05/09 02:57:39;;;;;;;43.60;24.97;;;13.60;99.90;;;;;;5030796;28;20083;-73
2023/05/09 03:00:09;;;;;;;44.93;25.47;;;13.60;99.90;;;;;;5034603;28;20037;-73
2023/05/09 03:02:36;;;;;;;45.10;25.37;;;13.60;99.90;;;;;;5029810;28;20052;-73
2023/05/09 03:05:02;;;;;;;51.63;26.63;;;13.60;99.90;;;;;;5027232;28;20333;-74
2023/05/09 03:07:28;;;;;;;46.53;25.93;;;13.60;99.90;;;;;;5051870;28;20695;-73
2023/05/09 03:09:54;;;;;;;48.43;27.27;;;13.60;99.90;;;;;;5034095;28;20072;-73
2023/05/09 03:12:20;;;;;;;48.87;27.10;;;13.60;99.90;;;;;;5032156;28;20331;-73
2023/05/09 03:14:46;;;;;;;48.57;27.60;;;13.60;99.90;;;;;;5017559;28;20099;-73
2023/05/09 03:17:16;;;;;;;53.97;27.40;;;13.50;99.90;;;;;;5021496;28;20103;-73
2023/05/09 03:19:41;;;;;;;49.67;27.27;;;13.50;99.90;;;;;;5034958;28;20287;-73
2023/05/09 03:22:07;;;;;;;53.10;28.17;;;13.60;99.90;;;;;;5023714;28;20702;-73
2023/05/09 03:24:33;;;;;;;50.60;29.23;;;13.60;99.90;;;;;;5037794;28;20067;-73
2023/05/09 03:26:59;;;;;;;48.67;27.87;;;13.60;99.90;;;;;;5033894;28;20037;-73
2023/05/09 03:29:24;;;;;;;49.43;29.33;;;13.60;99.90;;;;;;5045145;28;20391;-73
2023/05/09 03:31:50;;;;;;;51.87;28.07;;;13.60;99.90;;;;;;5041985;28;20038;-73
2023/05/09 03:34:16;;;;;;;52.73;27.63;;;13.60;99.90;;;;;;5037372;28;20045;-73
2023/05/09 03:36:43;;;;;;;50.13;27.90;;;13.60;99.90;;;;;;5019507;28;20291;-73
2023/05/09 03:39:09;;;;;;;48.80;27.07;;;13.60;99.90;;;;;;5029278;28;20098;-73
2023/05/09 03:41:35;;;;;;;53.10;28.60;;;13.60;99.90;;;;;;5048845;28;20331;-73
2023/05/09 03:44:04;;;;;;;51.67;27.90;;;13.60;99.90;;;;;;5048112;28;20310;-73
2023/05/09 03:46:30;;;;;;;58.97;28.93;;;13.60;99.90;;;;;;5025707;28;20352;-73
2023/05/09 03:48:56;;;;;;;52.27;27.50;;;13.60;99.90;;;;;;5032195;28;20283;-73
2023/05/09 03:51:21;;;;;;;49.73;27.53;;;13.60;99.90;;;;;;5022555;28;20053;-73
2023/05/09 03:53:47;;;;;;;50.50;27.83;;;13.60;99.90;;;;;;5043561;28;20129;-73
2023/05/09 03:56:13;;;;;;;48.57;27.17;;;13.60;99.90;;;;;;5019768;28;20098;-73
2023/05/09 03:58:39;;;;;;;56.57;27.97;;;13.60;99.90;;;;;;5043899;28;20123;-73
2023/05/09 04:01:05;;;;;;;54.00;27.63;;;13.60;99.90;;;;;;5048961;28;20783;-73
2023/05/09 04:03:31;;;;;;;49.93;27.70;;;13.60;99.90;;;;;;5042257;28;20033;-73
2023/05/09 04:05:57;;;;;;;48.33;27.20;;;13.60;99.90;;;;;;5024705;28;20044;-73
2023/05/09 04:08:23;;;;;;;54.20;29.53;;;13.70;99.90;;;;;;5030885;28;20287;-73
2023/05/09 04:10:50;;;;;;;53.37;27.83;;;13.70;99.90;;;;;;5029566;28;20048;-73
2023/05/09 04:13:15;;;;;;;55.13;27.77;;;13.70;99.90;;;;;;5047328;28;20071;-73
2023/05/09 04:15:41;;;;;;;50.57;27.43;;;13.70;99.90;;;;;;5032540;28;20287;-73
2023/05/09 04:18:07;;;;;;;52.87;28.60;;;13.70;99.90;;;;;;5024277;28;20055;-73
2023/05/09 04:20:33;;;;;;;60.67;31.53;;;13.70;99.90;;;;;;5030597;28;20074;-73
2023/05/09 04:22:59;;;;;;;53.70;29.83;;;13.70;99.90;;;;;;5031687;28;20473;-73
2023/05/09 04:25:25;;;;;;;58.97;30.47;;;13.80;99.90;;;;;;5047252;28;20094;-73
2023/05/09 04:27:51;;;;;;;57.97;29.57;;;13.70;99.90;;;;;;5026245;28;20041;-73
2023/05/09 04:30:17;;;;;;;55.10;29.47;;;13.70;99.90;;;;;;5022584;28;20093;-73
2023/05/09 04:32:45;;;;;;;57.73;30.90;;;13.70;99.90;;;;;;5032184;28;20284;-73
2023/05/09 04:35:12;;;;;;;57.37;29.57;;;13.70;99.90;;;;;;5033261;28;20381;-73
2023/05/09 04:37:38;;;;;;;54.97;28.70;;;13.70;99.90;;;;;;5028220;28;20288;-73
2023/05/09 04:40:04;;;;;;;61.63;31.07;;;13.70;99.90;;;;;;5047773;28;20651;-73
2023/05/09 04:42:33;;;;;;;58.70;29.73;;;13.70;99.90;;;;;;5027795;28;20060;-73
2023/05/09 04:44:59;;;;;;;65.10;31.37;;;13.70;99.90;;;;;;5044834;28;20353;-73
2023/05/09 04:47:25;;;;;;;59.97;29.77;;;13.70;99.90;;;;;;5049052;28;20287;-73
2023/05/09 04:49:51;;;;;;;59.83;31.03;;;13.70;99.90;;;;;;5045172;28;20286;-73
2023/05/09 04:52:17;;;;;;;60.90;31.77;;;13.70;99.90;;;;;;5049564;28;20037;-73
2023/05/09 04:54:43;;;;;;;62.57;32.47;;;13.70;99.90;;;;;;5053984;28;20298;-73
2023/05/09 04:57:08;;;;;;;61.23;29.90;;;13.70;99.90;;;;;;5048688;28;20505;-73
2023/05/09 04:59:35;;;;;;;65.40;31.87;;;13.70;99.90;;;;;;5023517;28;20461;-73
2023/05/09 05:02:01;;;;;;;67.57;33.47;;;13.70;99.90;;;;;;5033628;28;20119;-73
2023/05/09 05:04:27;;;;;;;62.30;32.17;;;13.80;99.90;;;;;;5047897;28;20378;-73
2023/05/09 05:06:53;;;;;;;65.90;35.00;;;13.80;99.90;;;;;;5045022;28;20295;-73
2023/05/09 05:09:19;;;;;;;64.60;32.73;;;13.80;99.90;;;;;;5031402;28;20295;-73
2023/05/09 05:11:44;;;;;;;64.50;33.87;;;13.80;99.90;;;;;;5037209;28;20421;-73
2023/05/09 05:14:10;;;;;;;66.57;33.90;;;13.90;99.90;;;;;;5020817;28;20049;-73
2023/05/09 05:16:36;;;;;;;64.40;33.63;;;13.90;99.90;;;;;;5034378;28;20045;-73
2023/05/09 05:19:02;;;;;;;66.97;34.20;;;14.00;99.90;;;;;;5041685;28;20041;-73
2023/05/09 05:21:27;;;;;;;72.77;35.40;;;14.10;99.90;;;;;;5018163;28;20512;-73
2023/05/09 05:23:53;;;;;;;69.83;34.57;;;14.30;99.90;;;;;;5035253;28;20049;-73
2023/05/09 05:26:19;;;;;;;68.57;35.23;;;14.40;99.90;;;;;;5029883;28;20509;-73
2023/05/09 05:28:45;;;;;;;67.63;34.63;;;14.50;99.90;;;;;;5043146;28;20048;-73
2023/05/09 05:31:11;;;;;;;74.63;37.17;;;14.60;99.90;;;;;;5021654;28;20284;-73
2023/05/09 05:33:37;;;;;;;69.43;36.63;;;14.70;99.90;;;;;;5031091;28;20425;-73
2023/05/09 05:36:03;;;;;;;70.80;36.90;;;14.80;99.90;;;;;;5026187;28;20037;-73
2023/05/09 05:38:28;;;;;;;73.10;37.43;;;14.90;99.90;;;;;;5025477;28;20049;-73
2023/05/09 05:40:54;;;;;;;74.53;39.17;;;14.90;99.90;;;;;;5045951;28;20029;-73
2023/05/09 05:43:20;;;;;;;66.70;36.73;;;14.90;99.90;;;;;;5025287;28;20076;-73
2023/05/09 05:45:45;;;;;;;70.83;39.60;;;15.00;99.90;;;;;;5026966;28;20037;-73
2023/05/09 05:48:11;;;;;;;70.73;38.30;;;15.00;99.90;;;;;;5030139;28;20039;-73
2023/05/09 05:50:37;;;;;;;73.63;39.17;;;15.00;99.90;;;;;;5047858;28;20103;-73
2023/05/09 05:53:03;;;;;;;73.77;38.90;;;15.00;99.90;;;;;;5029346;28;20458;-73
2023/05/09 05:55:28;;;;;;;73.40;39.97;;;15.10;99.90;;;;;;5044737;28;20048;-73
2023/05/09 05:57:54;;;;;;;73.90;40.43;;;15.10;99.90;;;;;;5038551;28;20310;-73
2023/05/09 06:00:20;;;;;;;68.73;39.00;;;15.10;99.90;;;;;;5044827;28;20797;-73
2023/05/09 06:02:48;;;;;;;71.63;39.10;;;15.20;99.90;;;;;;5041010;28;20507;-73
2023/05/09 06:05:14;;;;;;;70.53;39.17;;;15.20;99.90;;;;;;5036797;28;20065;-73
2023/05/09 06:07:40;;;;;;;68.73;39.80;;;15.30;99.90;;;;;;5029461;28;20651;-73
2023/05/09 06:10:07;;;;;;;71.37;39.77;;;15.40;99.90;;;;;;5023580;28;20520;-73
2023/05/09 06:12:32;;;;;;;69.33;39.27;;;15.50;99.90;;;;;;5028516;28;20485;-73
2023/05/09 06:14:58;;;;;;;69.93;39.50;;;15.60;99.90;;;;;;5040235;28;20337;-73
2023/05/09 06:17:24;;;;;;;71.53;38.60;;;15.60;99.90;;;;;;5027081;28;20159;-73
2023/05/09 06:19:50;;;;;;;72.67;40.73;;;15.70;99.90;;;;;;5031073;28;20401;-73
2023/05/09 06:22:15;;;;;;;73.97;41.13;;;15.80;99.90;;;;;;5044628;28;20048;-73
2023/05/09 06:24:41;;;;;;;73.83;42.07;;;15.80;99.90;;;;;;5047564;28;20529;-73
2023/05/09 06:27:07;;;;;;;71.33;40.53;;;15.80;99.90;;;;;;5041273;28;20400;-73
2023/05/09 06:29:33;;;;;;;71.47;40.10;;;15.80;99.90;;;;;;5030481;28;20505;-73
2023/05/09 06:31:59;;;;;;;68.97;40.70;;;15.80;99.90;;;;;;5029373;28;20566;-73
2023/05/09 06:34:24;;;;;;;73.07;40.83;;;15.90;99.90;;;;;;5024177;28;20032;-73
2023/05/09 06:36:50;;;;;;;73.20;40.13;;;15.90;99.90;;;;;;5045676;28;20473;-73
2023/05/09 06:39:16;;;;;;;75.30;41.13;;;16.00;99.90;;;;;;5024440;28;20076;-73
2023/05/09 06:41:41;;;;;;;74.30;40.90;;;16.00;99.90;;;;;;5038252;28;20044;-73
2023/05/09 06:44:07;;;;;;;72.80;41.27;;;16.10;99.90;;;;;;5039792;28;20486;-73
2023/05/09 06:46:33;;;;;;;71.07;40.33;;;16.10;99.90;;;;;;5026291;28;20097;-73
2023/05/09 06:49:00;;;;;;;75.67;40.70;;;16.20;99.90;;;;;;5028647;28;20498;-73
2023/05/09 06:51:26;;;;;;;71.77;41.00;;;16.20;99.90;;;;;;5026819;28;20044;-73
2023/05/09 06:53:52;;;;;;;69.93;40.33;;;16.20;99.90;;;;;;5043001;28;20295;-73
2023/05/09 06:56:20;;;;;;;73.17;41.53;;;16.30;99.90;;;;;;5026178;28;20045;-73
2023/05/09 06:58:46;;;;;;;69.27;39.73;;;16.30;99.90;;;;;;5035458;28;20485;-73
2023/05/09 07:01:11;;;;;;;69.33;40.03;;;16.40;99.90;;;;;;5046338;28;20371;-73
2023/05/09 07:03:37;;;;;;;68.07;39.60;;;16.50;99.90;;;;;;5024039;28;20486;-73
2023/05/09 07:06:03;;;;;;;68.57;38.63;;;16.50;99.90;;;;;;5039588;28;20057;-73
2023/05/09 07:08:29;;;;;;;68.50;38.27;;;16.60;99.90;;;;;;5024631;28;20064;-74
2023/05/09 07:10:54;;;;;;;67.40;39.13;;;16.60;99.90;;;;;;5039786;28;20037;-71
2023/05/09 07:13:20;;;;;;;65.57;38.37;;;16.60;99.90;;;;;;5046442;28;20047;-73
2023/05/09 07:15:46;;;;;;;67.53;38.57;;;16.70;99.90;;;;;;5027534;28;20076;-72
2023/05/09 07:18:11;;;;;;;62.43;37.73;;;16.70;99.90;;;;;;5029709;28;20401;-72
2023/05/09 07:20:37;;;;;;;64.27;37.80;;;16.70;99.90;;;;;;5029574;28;20045;-72
2023/05/09 07:23:04;;;;;;;67.20;38.33;;;16.70;99.90;;;;;;5045192;28;20056;-72
2023/05/09 07:25:30;;;;;;;60.50;36.73;;;16.70;99.90;;;;;;5026123;28;20097;-72
2023/05/09 07:27:56;;;;;;;63.07;38.10;;;16.70;99.90;;;;;;5025390;28;20307;-72
2023/05/09 07:30:22;;;;;;;61.70;37.97;;;16.70;99.90;;;;;;5048019;28;20279;-72
2023/05/09 07:32:48;;;;;;;61.93;37.23;;;16.70;99.90;;;;;;5028668;28;20135;-72
2023/05/09 07:35:13;;;;;;;62.37;36.53;;;16.60;99.90;;;;;;5043691;28;20132;-72
2023/05/09 07:37:39;;;;;;;62.17;37.73;;;16.60;99.90;;;;;;5041919;28;20048;-72
2023/05/09 07:40:05;;;;;;;66.20;38.00;;;16.50;99.90;;;;;;5029779;28;20609;-72
2023/05/09 07:42:31;;;;;;;60.07;36.13;;;16.50;99.90;;;;;;5048255;28;20064;-72
2023/05/09 07:44:58;;;;;;;55.80;33.43;;;16.50;99.90;;;;;;5029673;28;20291;-72
2023/05/09 07:47:24;;;;;;;56.57;34.03;;;16.50;99.90;;;;;;5026457;28;20280;-72
2023/05/09 07:49:50;;;;;;;56.97;33.70;;;16.50;99.90;;;;;;5024809;28;20283;-72
2023/05/09 07:52:16;;;;;;;52.47;33.03;;;16.50;99.90;;;;;;5048422;28;20319;-73
2023/05/09 07:54:43;;;;;;;50.97;31.77;;;16.50;99.90;;;;;;5030855;28;20353;-73
2023/05/09 07:57:09;;;;;;;53.50;32.00;;;16.50;99.90;;;;;;5026432;28;20323;-73
2023/05/09 07:59:34;;;;;;;53.77;31.10;;;16.40;99.90;;;;;;5039611;28;20320;-73
2023/05/09 08:02:00;;;;;;;50.80;31.80;;;16.50;99.90;;;;;;5037920;28;20045;-72
2023/05/09 08:04:26;;;;;;;53.47;32.13;;;16.50;99.90;;;;;;5042924;28;20053;-72
2023/05/09 08:06:52;;;;;;;52.63;32.00;;;16.50;99.90;;;;;;5034885;28;20049;-72
2023/05/09 08:09:17;;;;;;;54.37;33.00;;;16.50;99.90;;;;;;5033647;28;20121;-72
2023/05/09 08:11:44;;;;;;;49.73;31.30;;;16.60;99.90;;;;;;5030510;28;20045;-73
2023/05/09 08:14:10;;;;;;;51.20;29.93;;;16.60;99.90;;;;;;5029437;28;20044;-72
2023/05/09 08:16:35;;;;;;;47.60;31.00;;;16.60;99.90;;;;;;5046541;28;20374;-72
2023/05/09 08:19:01;;;;;;;46.67;30.43;;;16.70;99.90;;;;;;5042469;28;20657;-72
2023/05/09 08:21:27;;;;;;;46.63;30.13;;;16.80;99.90;;;;;;5030252;28;20119;-72
2023/05/09 08:23:53;;;;;;;45.83;28.07;;;16.90;99.90;;;;;;5029267;28;20056;-72
2023/05/09 08:26:18;;;;;;;42.47;26.53;;;16.90;99.90;;;;;;5024058;28;20136;-72
2023/05/09 08:28:44;;;;;;;38.40;25.30;;;17.00;99.90;;;;;;5035794;28;20037;-72
2023/05/09 08:31:10;;;;;;;42.50;26.00;;;17.00;99.90;;;;;;5020231;28;20099;-72
2023/05/09 08:33:36;;;;;;;40.33;25.73;;;17.10;99.90;;;;;;5037970;28;20037;-72
2023/05/09 08:36:01;;;;;;;41.67;25.00;;;17.20;99.90;;;;;;5022588;28;20219;-72
2023/05/09 08:38:27;;;;;;;42.00;25.13;;;17.30;99.90;;;;;;5044207;28;20087;-72
2023/05/09 08:40:59;;;;;;;42.50;26.97;;;17.40;99.90;;;;;;5025879;28;20119;-72
2023/05/09 08:43:27;;;;;;;41.93;26.17;;;17.50;99.90;;;;;;5044025;28;20068;-72
2023/05/09 08:46:15;;;;;;;41.93;25.07;;;17.70;99.90;;;;;;5045111;28;20275;-73
2023/05/09 08:48:43;;;;;;;41.77;25.97;;;17.80;99.90;;;;;;5020852;28;20129;-73
2023/05/09 08:51:10;;;;;;;39.03;24.27;;;17.90;99.90;;;;;;5026203;28;20998;-73
2023/05/09 08:53:36;;;;;;;35.03;22.67;;;18.00;99.90;;;;;;5031644;28;20290;-73
2023/05/09 08:56:03;;;;;;;33.00;22.20;;;18.10;99.90;;;;;;5030830;28;20049;-73
2023/05/09 08:58:30;;;;;;;36.63;21.57;;;18.10;99.90;;;;;;5045599;28;20044;-72
2023/05/09 09:00:56;;;;;;;33.60;22.33;;;18.20;99.90;;;;;;5027711;28;20559;-72
2023/05/09 09:03:25;;;;;;;35.27;22.23;;;18.10;99.90;;;;;;5049192;28;20064;-72
2023/05/09 09:05:52;;;;;;;33.77;19.93;;;18.20;99.90;;;;;;5029026;28;20048;-73
2023/05/09 09:08:20;;;;;;;31.47;19.73;;;18.30;99.90;;;;;;5048755;28;20111;-73
2023/05/09 09:10:46;;;;;;;30.90;19.37;;;18.30;99.90;;;;;;5030044;28;20037;-72
2023/05/09 09:13:13;;;;;;;27.03;18.10;;;18.40;99.90;;;;;;5051623;28;20037;-72
2023/05/09 09:15:41;;;;;;;28.17;18.33;;;18.50;99.90;;;;;;5021330;28;20378;-73
2023/05/09 09:18:10;;;;;;;29.80;18.67;;;18.60;99.90;;;;;;5021131;28;20045;-74
2023/05/09 09:20:50;;;;;;;28.83;18.53;;;18.60;99.90;;;;;;5028962;28;20044;-73
2023/05/09 09:23:22;;;;;;;28.13;18.57;;;18.70;99.90;;;;;;5047308;28;20908;-73
2023/05/09 09:25:48;;;;;;;28.13;17.07;;;18.70;99.90;;;;;;5031267;28;20040;-72
2023/05/09 09:28:14;;;;;;;28.20;18.47;;;18.80;99.90;;;;;;5030030;28;20428;-73
2023/05/09 09:30:46;;;;;;;27.03;18.53;;;18.70;99.90;;;;;;5046919;28;20026;-73
2023/05/09 09:33:19;;;;;;;31.33;19.33;;;18.70;99.90;;;;;;5037676;28;20043;-73
2023/05/09 09:35:46;;;;;;;27.63;18.80;;;18.80;99.90;;;;;;5044357;28;20473;-73
2023/05/09 09:38:11;;;;;;;29.50;17.73;;;18.80;99.90;;;;;;5038057;28;20046;-73
2023/05/09 09:40:39;;;;;;;27.20;18.27;;;18.90;99.90;;;;;;5037342;28;20123;-73
2023/05/09 09:43:06;;;;;;;28.83;18.73;;;18.90;99.90;;;;;;5018270;28;20067;-73
2023/05/09 09:45:32;;;;;;;25.80;17.50;;;19.00;99.90;;;;;;5028340;28;20115;-73
2023/05/09 09:47:57;;;;;;;25.10;18.27;;;19.00;99.90;;;;;;5028866;28;20053;-73
2023/05/09 09:50:24;;;;;;;24.53;17.77;;;19.00;99.90;;;;;;5044295;28;20048;-73
2023/05/09 09:52:51;;;;;;;25.30;16.67;;;19.00;99.90;;;;;;5047576;28;20051;-73
2023/05/09 09:55:18;;;;;;;23.87;17.60;;;18.80;99.90;;;;;;5044663;28;20052;-73
2023/05/09 09:57:45;;;;;;;30.27;18.13;;;18.80;99.90;;;;;;5030171;28;20520;-73
2023/05/09 10:00:19;;;;;;;23.43;17.53;;;18.70;99.90;;;;;;5023457;28;20248;-73
2023/05/09 10:02:51;;;;;;;24.75;17.35;;;18.70;99.90;;;;;;5039312;28;20098;-73
2023/05/09 10:05:25;;;;;;;25.03;17.23;;;18.80;99.90;;;;;;5041065;28;20133;-74
2023/05/09 10:08:02;;;;;;;27.20;18.50;;;18.80;99.90;;;;;;5037986;28;20095;-73
2023/05/09 10:10:30;;;;;;;26.53;17.73;;;18.80;99.90;;;;;;5021269;28;20474;-74
2023/05/09 10:13:01;;;;;;;28.33;18.60;;;18.80;99.90;;;;;;5019930;28;20128;-74
2023/05/09 10:15:30;;;;;;;27.30;18.60;;;18.70;99.90;;;;;;5043964;28;20063;-74
2023/05/09 10:17:58;;;;;;;27.13;18.70;;;18.60;99.90;;;;;;5040735;28;20038;-74
2023/05/09 10:20:24;;;;;;;25.10;18.07;;;18.60;99.90;;;;;;5025162;28;20049;-73
2023/05/09 10:22:55;;;;;;;25.10;18.03;;;18.50;99.90;;;;;;5027977;28;20047;-73
2023/05/09 10:25:51;;;;;;;26.87;19.47;;;18.50;99.90;;;;;;5041610;28;20045;-73
2023/05/09 10:28:17;;;;;;;;;;;18.40;99.90;;;;;;5039212;28;20493;-73
2023/05/09 10:30:58;;;;;;;25.77;17.63;;;18.30;99.90;;;;;;5036526;28;20326;-73
2023/05/09 10:33:30;;;;;;;24.10;18.27;;;18.20;99.90;;;;;;5019675;28;20077;-73
2023/05/09 10:35:59;;;;;;;25.37;18.13;;;18.00;99.90;;;;;;5035636;28;20412;-73
2023/05/09 10:38:25;;;;;;;26.73;17.80;;;17.70;99.90;;;;;;5015318;28;20033;-73
2023/05/09 10:40:53;;;;;;;27.40;18.87;;;17.50;99.90;;;;;;5030005;28;20508;-73
2023/05/09 10:43:22;;;;;;;25.13;19.23;;;17.20;99.90;;;;;;5018125;28;20472;-73
2023/05/09 10:45:48;;;;;;;25.57;17.93;;;17.10;99.90;;;;;;5029578;28;20033;-73
2023/05/09 10:48:15;;;;;;;28.60;19.63;;;17.00;99.90;;;;;;5023173;28;20033;-73
2023/05/09 10:50:42;;;;;;;23.13;17.97;;;17.00;99.90;;;;;;5033127;28;20394;-73
2023/05/09 10:53:20;;;;;;;29.37;20.47;;;16.90;99.90;;;;;;5038677;28;20148;-73
2023/05/09 10:55:46;;;;;;;25.63;18.87;;;16.90;99.90;;;;;;5044471;28;20045;-73
2023/05/09 10:58:25;;;;;;;24.30;18.50;;;16.90;99.90;;;;;;5041341;28;20756;-73
2023/05/09 11:00:56;;;;;;;24.93;18.23;;;17.10;99.90;;;;;;5029962;28;20063;-73
2023/05/09 11:03:23;;;;;;;24.23;19.07;;;17.20;99.90;;;;;;5031143;28;20229;-73
2023/05/09 11:05:52;;;;;;;25.50;19.77;;;17.20;99.90;;;;;;5031070;28;20046;-73
2023/05/09 11:08:41;;;;;;;25.97;18.90;;;17.30;99.90;;;;;;5048407;28;20048;-73
2023/05/09 11:11:06;;;;;;;23.97;19.30;;;17.30;99.90;;;;;;5034429;28;20097;-73
2023/05/09 11:13:39;;;;;;;22.70;18.90;;;17.30;99.90;;;;;;5043356;28;20037;-73
2023/05/09 11:16:08;;;;;;;26.80;18.10;;;17.30;99.90;;;;;;5034501;28;20045;-73
2023/05/09 11:18:34;;;;;;;25.47;18.37;;;17.40;99.90;;;;;;5050050;28;20120;-73
2023/05/09 11:21:07;;;;;;;23.37;18.23;;;17.40;99.90;;;;;;5050720;28;20128;-73
2023/05/09 11:23:33;;;;;;;23.70;17.70;;;17.40;99.90;;;;;;5046385;28;20168;-73
2023/05/09 11:26:07;;;;;;;24.70;18.80;;;17.30;99.90;;;;;;5034321;28;20529;-73
2023/05/09 11:28:35;;;;;;;21.00;16.97;;;17.20;99.90;;;;;;5047181;28;20049;-73
2023/05/09 11:31:14;;;;;;;23.23;19.10;;;17.10;99.90;;;;;;5025765;28;20053;-73
2023/05/09 11:33:41;;;;;;;20.33;16.60;;;17.00;99.90;;;;;;5047289;28;20037;-73
2023/05/09 11:36:28;;;;;;;19.97;15.63;;;16.90;99.90;;;;;;5050348;28;20633;-72
2023/05/09 11:39:08;;;;;;;19.50;15.07;;;16.90;99.90;;;;;;5040653;28;20056;-72
2023/05/09 11:41:44;;;;;;;19.13;15.37;;;16.80;99.90;;;;;;5049041;28;20378;-72
2023/05/09 11:44:18;;;;;;;20.27;14.67;;;16.80;99.90;;;;;;5041790;28;20048;-72
2023/05/09 11:46:45;;;;;;;17.38;14.50;;;16.80;99.90;;;;;;5027252;28;20528;-72
2023/05/09 11:49:11;;;;;;;18.83;15.00;;;16.90;99.90;;;;;;5029546;28;20595;-72
2023/05/09 11:51:37;;;;;;;17.17;13.70;;;16.90;99.90;;;;;;5027599;28;20029;-72
2023/05/09 11:54:05;;;;;;;15.33;12.13;;;17.10;99.90;;;;;;5050762;28;20055;-72
2023/05/09 11:56:32;;;;;;;14.17;11.83;;;17.20;99.90;;;;;;5038763;28;20045;-73
2023/05/09 11:58:58;;;;;;;15.77;13.43;;;17.20;99.90;;;;;;5050833;28;20128;-73
2023/05/09 12:01:23;;;;;;;14.40;12.90;;;17.30;99.90;;;;;;5020337;28;20730;-73
2023/05/09 12:03:50;;;;;;;16.20;13.73;;;17.30;99.90;;;;;;5034581;28;20119;-73
2023/05/09 12:06:17;;;;;;;15.87;13.50;;;17.40;99.90;;;;;;5020470;28;20072;-73
2023/05/09 12:08:44;;;;;;;15.13;13.17;;;17.50;99.90;;;;;;5042621;28;20291;-73
2023/05/09 12:11:11;;;;;;;14.90;12.37;;;17.60;99.90;;;;;;5044197;28;20283;-73
2023/05/09 12:13:51;;;;;;;16.33;13.37;;;17.60;99.90;;;;;;5049626;28;20490;-73
2023/05/09 12:16:18;;;;;;;14.50;12.80;;;17.60;99.90;;;;;;5025379;28;20092;-73
2023/05/09 12:18:49;;;;;;;14.90;12.00;;;17.50;99.90;;;;;;5031710;28;20048;-73
2023/05/09 12:21:16;;;;;;;13.63;11.50;;;17.50;99.90;;;;;;5028241;28;20072;-73
2023/05/09 12:23:42;;;;;;;12.50;10.80;;;17.50;99.90;;;;;;5036367;28;20596;-73
2023/05/09 12:26:08;;;;;;;12.30;10.53;;;17.40;99.90;;;;;;5030161;28;20029;-74
2023/05/09 12:28:35;;;;;;;11.53;10.20;;;17.40;99.90;;;;;;5030049;28;20140;-73
2023/05/09 12:31:01;;;;;;;11.57;10.20;;;17.30;99.90;;;;;;5045520;28;20854;-73